Time;durP1;ratioP1;P1;durP2;ratioP2;P2;SDS_P1;SDS_P2;PMS_P1;PMS_P2;Temp;Humidity;BMP_temperature;BMP_pressure;BME280_temperature;BME280_humidity;BME280_pressure;Samples;Min_cycle;Max_cycle;Signal;HPM_P1;HPM_P2
2022/07/05 00:02:23;;;;;;;;;;;;;;;-144.99;90.28;52264.66;5046988;28;20011;-59
2022/07/05 00:04:50;;;;;;;;;;;;;;;-144.99;91.16;52268.72;5047092;28;20032;-62
2022/07/05 00:07:19;;;;;;;;;;;;;;;-144.99;91.56;52280.97;5037333;28;19960;-60
2022/07/05 00:09:46;;;;;;;;;;;;;;;-144.99;92.33;52313.56;5038870;28;20167;-61
2022/07/05 00:12:14;;;;;;;;;;;;;;;-144.99;92.61;52258.53;5033863;28;19929;-61
2022/07/05 00:14:41;;;;;;;;;;;;;;;-144.99;93.16;52266.69;4690494;28;10000334;-61
2022/07/05 00:17:08;;;;;;;;;;;;;;;-144.99;93.38;52246.31;5035685;28;20016;-62
2022/07/05 00:19:35;;;;;;;;;;;;;;;-144.99;93.79;52248.34;5036005;28;20043;-60
2022/07/05 00:22:01;;;;;;;;;;;;;;;-144.99;93.94;52264.66;5035107;28;20019;-60
2022/07/05 00:24:27;;;;;;;;;;;;;;;-144.99;94.51;52289.13;5036739;28;20036;-60
2022/07/05 00:26:54;;;;;;;;;;;;;;;-144.99;95.30;52285.03;5040502;28;19956;-65
2022/07/05 00:29:22;;;;;;;;;;;;;;;-144.99;95.13;52321.72;5045269;28;20020;-63
2022/07/05 00:31:48;;;;;;;;;;;;;;;-144.99;95.94;52272.81;5040335;28;20400;-63
2022/07/05 00:34:15;;;;;;;;;;;;;;;-144.99;96.76;52285.03;5052973;22;19988;-66
2022/07/05 00:36:41;;;;;;;;;;;;;;;-144.99;97.15;52301.34;5065806;28;20019;-66
2022/07/05 00:39:08;;;;;;;;;;;;;;;-144.99;97.28;52244.28;5054906;28;20433;-67
2022/07/05 00:41:35;;;;;;;;;;;;;;;-144.99;97.95;52276.88;5054874;28;19932;-66
2022/07/05 00:44:03;;;;;;;;;;;;;;;-144.99;97.90;52289.13;5058657;28;19963;-67
2022/07/05 00:46:31;;;;;;;;;;;;;;;-144.99;98.39;52285.03;5053439;28;20385;-67
2022/07/05 00:48:58;;;;;;;;;;;;;;;-144.99;98.91;52276.88;5055475;28;20011;-67
2022/07/05 00:51:25;;;;;;;;;;;;;;;-144.99;99.50;52317.66;5054681;28;20384;-64
2022/07/05 00:53:51;;;;;;;;;;;;;;;-144.99;100.00;52285.03;5055940;28;19928;-63
2022/07/05 00:56:18;;;;;;;;;;;;;;;-144.99;100.00;52297.25;5050937;28;20042;-62
2022/07/05 00:58:45;;;;;;;;;;;;;;;-144.99;100.00;52256.50;5058199;28;20023;-61
2022/07/05 01:01:11;;;;;;;;;;;;;;;-144.99;100.00;52278.91;5048054;28;19976;-72
2022/07/05 01:03:39;;;;;;;;;;;;;;;-144.99;100.00;52297.25;5052180;28;20018;-72
2022/07/05 01:06:07;;;;;;;;;;;;;;;-144.99;100.00;52309.50;5049394;28;20032;-73
2022/07/05 01:08:36;;;;;;;;;;;;;;;-144.99;100.00;52325.81;5047241;28;20028;-72
2022/07/05 01:11:02;;;;;;;;;;;;;;;-144.99;100.00;52309.50;5051809;28;19925;-73
2022/07/05 01:13:29;;;;;;;;;;;;;;;-144.99;100.00;52266.69;5042885;28;19925;-73
2022/07/05 01:15:56;;;;;;;;;;;;;;;-144.99;100.00;52313.56;5056291;28;20011;-63
2022/07/05 01:18:22;;;;;;;;;;;;;;;-144.99;100.00;52276.88;5056860;28;20380;-63
2022/07/05 01:20:51;;;;;;;;;;;;;;;-144.99;100.00;52268.72;5053303;28;20047;-63
2022/07/05 01:23:19;;;;;;;;;;;;;;;-144.99;100.00;52329.88;5050331;28;20035;-63
2022/07/05 01:25:45;;;;;;;;;;;;;;;-144.99;100.00;52280.97;5042399;28;20007;-63
2022/07/05 01:28:12;;;;;;;;;;;;;;;-144.99;100.00;52315.59;5054734;28;19947;-63
2022/07/05 01:30:39;;;;;;;;;;;;;;;-144.99;100.00;52293.19;5058605;28;20008;-67
2022/07/05 01:33:07;;;;;;;;;;;;;;;-144.99;100.00;52289.13;5053361;28;19936;-68
2022/07/05 01:35:33;;;;;;;;;;;;;;;-144.99;100.00;52280.97;5053207;28;20389;-68
2022/07/05 01:38:00;;;;;;;;;;;;;;;-144.99;100.00;52260.56;5061170;28;19924;-68
2022/07/05 01:40:28;;;;;;;;;;;;;;;-144.99;100.00;52313.56;5062412;28;20476;-70
2022/07/05 01:42:55;;;;;;;;;;;;;;;-144.99;100.00;52297.25;5059505;28;20031;-69
2022/07/05 01:48:02;;;;;;;;;;;;;;;-144.99;100.00;52305.41;5049722;28;19928;-70
2022/07/05 01:50:30;;;;;;;;;;;;;;;-144.99;100.00;52325.81;5050379;28;20031;-69
2022/07/05 01:52:57;;;;;;;;;;;;;;;-144.99;100.00;52313.56;5056195;28;19924;-68
2022/07/05 01:55:24;;;;;;;;;;;;;;;-144.99;100.00;52287.06;5044570;28;19936;-68
2022/07/05 01:57:52;;;;;;;;;;;;;;;-144.99;100.00;52293.19;5050552;28;19952;-67
2022/07/05 02:00:18;;;;;;;;;;;;;;;-144.99;100.00;52293.19;5055247;28;20028;-68
2022/07/05 02:02:45;;;;;;;;;;;;;;;-144.99;100.00;52289.13;5054133;28;19964;-69
2022/07/05 02:05:11;;;;;;;;;;;;;;;-144.99;100.00;52305.41;5057133;28;20023;-67
2022/07/05 02:07:38;;;;;;;;;;;;;;;-144.99;100.00;52295.22;5057463;28;20417;-70
2022/07/05 02:10:05;;;;;;;;;;;;;;;-144.99;100.00;52297.25;5054037;28;19967;-70
2022/07/05 02:12:31;;;;;;;;;;;;;;;-144.99;100.00;52297.25;5045573;28;20028;-70
2022/07/05 02:14:59;;;;;;;;;;;;;;;-144.99;100.00;52317.66;5046961;28;20019;-69
2022/07/05 02:17:25;;;;;;;;;;;;;;;-144.99;100.00;52283.00;5049606;28;19964;-69
2022/07/05 02:19:52;;;;;;;;;;;;;;;-144.99;100.00;52289.13;5050087;28;19928;-69
2022/07/05 02:22:18;;;;;;;;;;;;;;;-144.99;100.00;52313.56;5047703;28;19925;-69
2022/07/05 02:24:45;;;;;;;;;;;;;;;-144.99;100.00;52333.94;5046271;28;20010;-68
2022/07/05 02:27:11;;;;;;;;;;;;;;;-144.99;100.00;52293.19;5049174;28;20013;-68
2022/07/05 02:29:38;;;;;;;;;;;;;;;-144.99;100.00;52285.03;5048723;28;19987;-70
2022/07/05 02:32:06;;;;;;;;;;;;;;;-144.99;100.00;52285.03;5044193;28;20014;-69
2022/07/05 02:34:33;;;;;;;;;;;;;;;-144.99;100.00;52309.50;5046711;28;19931;-69
2022/07/05 02:36:59;;;;;;;;;;;;;;;-144.99;100.00;52295.22;5052813;28;19924;-69
2022/07/05 02:39:26;;;;;;;;;;;;;;;-144.99;100.00;52317.66;5055207;28;20429;-69
2022/07/05 02:41:52;;;;;;;;;;;;;;;-144.99;100.00;52293.19;5055486;28;19991;-70
2022/07/05 02:44:18;;;;;;;;;;;;;;;-144.99;100.00;52317.66;5051416;28;20377;-69
2022/07/05 02:46:45;;;;;;;;;;;;;;;-144.99;100.00;52305.41;5056228;28;19928;-69
2022/07/05 02:49:13;;;;;;;;;;;;;;;-144.99;100.00;52338.03;5054682;28;20064;-69
2022/07/05 02:51:39;;;;;;;;;;;;;;;-144.99;100.00;52293.19;5056728;28;19924;-69
2022/07/05 02:54:06;;;;;;;;;;;;;;;-144.99;100.00;52313.56;5056115;28;20435;-68
2022/07/05 02:56:32;;;;;;;;;;;;;;;-144.99;100.00;52313.56;5051820;28;19975;-68
2022/07/05 02:58:59;;;;;;;;;;;;;;;-144.99;100.00;52291.16;5050466;28;20012;-68
2022/07/05 03:01:25;;;;;;;;;;;;;;;-144.99;100.00;52299.31;5055891;28;20028;-66
2022/07/05 03:03:51;;;;;;;;;;;;;;;-144.99;100.00;52297.25;5055643;28;20021;-68
2022/07/05 03:06:19;;;;;;;;;;;;;;;-144.99;100.00;52285.03;5054653;28;19924;-68
2022/07/05 03:08:46;;;;;;;;;;;;;;;-144.99;100.00;52333.94;5056608;28;20019;-67
2022/07/05 03:11:12;;;;;;;;;;;;;;;-144.99;100.00;52285.03;5054015;28;20023;-67
2022/07/05 03:13:39;;;;;;;;;;;;;;;-144.99;100.00;52289.13;5053144;28;20404;-67
2022/07/05 03:16:05;;;;;;;;;;;;;;;-144.99;100.00;52276.88;5060959;28;20472;-67
2022/07/05 03:18:31;;;;;;;;;;;;;;;-144.99;100.00;52309.50;5060481;28;19924;-67
2022/07/05 03:20:58;;;;;;;;;;;;;;;-144.99;100.00;52285.03;5061862;28;19964;-65
2022/07/05 03:23:26;;;;;;;;;;;;;;;-144.99;100.00;52313.56;5054514;28;19950;-72
2022/07/05 03:25:52;;;;;;;;;;;;;;;-144.99;100.00;52313.56;5056723;28;19930;-72
2022/07/05 03:28:19;;;;;;;;;;;;;;;-144.99;100.00;52325.81;5057372;28;20008;-72
2022/07/05 03:30:45;;;;;;;;;;;;;;;-144.99;100.00;52313.56;5061833;28;19933;-71
2022/07/05 03:33:11;;;;;;;;;;;;;;;-144.99;100.00;52280.97;5056699;28;19932;-71
2022/07/05 03:35:38;;;;;;;;;;;;;;;-144.99;100.00;52295.22;5047680;28;19955;-70
2022/07/05 03:38:04;;;;;;;;;;;;;;;-144.99;100.00;52280.97;5057477;28;20214;-71
2022/07/05 03:40:32;;;;;;;;;;;;;;;-144.99;100.00;52338.03;5054845;28;19978;-71
2022/07/05 03:42:59;;;;;;;;;;;;;;;-144.99;100.00;52244.28;5053751;28;20023;-70
2022/07/05 03:45:25;;;;;;;;;;;;;;;-144.99;100.00;52293.19;5059129;28;19925;-71
2022/07/05 03:47:52;;;;;;;;;;;;;;;-144.99;100.00;52260.56;5060087;28;19931;-69
2022/07/05 03:50:18;;;;;;;;;;;;;;;-144.99;100.00;52293.19;5056503;28;20019;-69
2022/07/05 03:52:44;;;;;;;;;;;;;;;-144.99;100.00;52291.16;5059926;28;20051;-70
2022/07/05 03:55:11;;;;;;;;;;;;;;;-144.99;100.00;52272.81;5057976;28;20015;-69
2022/07/05 03:57:39;;;;;;;;;;;;;;;-144.99;100.00;52309.50;5055365;28;20263;-68
2022/07/05 04:00:06;;;;;;;;;;;;;;;-144.99;100.00;52303.38;5059676;28;19933;-67
2022/07/05 04:02:32;;;;;;;;;;;;;;;-144.99;100.00;52297.25;5060986;28;20374;-67
2022/07/05 04:04:59;;;;;;;;;;;;;;;-144.99;100.00;52317.66;5056833;28;20434;-67
2022/07/05 04:07:25;;;;;;;;;;;;;;;-144.99;100.00;52285.03;5056737;28;20400;-68
2022/07/05 04:09:51;;;;;;;;;;;;;;;-144.99;100.00;52293.19;5054108;28;19970;-68
2022/07/05 04:12:18;;;;;;;;;;;;;;;-144.99;100.00;52283.00;5057555;28;19967;-69
2022/07/05 04:14:46;;;;;;;;;;;;;;;-144.99;100.00;52297.25;5056330;28;20493;-69
2022/07/05 04:17:12;;;;;;;;;;;;;;;-144.99;100.00;52285.03;5056874;28;19960;-66
2022/07/05 04:19:39;;;;;;;;;;;;;;;-144.99;100.00;52264.66;5057867;28;20402;-68
2022/07/05 04:22:05;;;;;;;;;;;;;;;-144.99;100.00;52268.72;5052381;28;20364;-68
2022/07/05 04:25:16;;;;;;;;;;;;;;;-144.99;100.00;52283.00;5058236;28;20015;-68
2022/07/05 04:27:18;;;;;;;;;;;;;;;-144.99;100.00;52321.72;5051594;28;19935;-68
2022/07/05 04:29:46;;;;;;;;;;;;;;;-144.99;100.00;52285.03;5049068;28;20258;-68
2022/07/05 04:32:12;;;;;;;;;;;;;;;-144.99;100.00;52268.72;5056390;28;19925;-68
2022/07/05 04:34:38;;;;;;;;;;;;;;;-144.99;100.00;52289.13;5051877;28;20369;-68
2022/07/05 04:37:05;;;;;;;;;;;;;;;-144.99;100.00;52242.22;5040240;28;20399;-68
2022/07/05 04:39:31;;;;;;;;;;;;;;;-144.99;100.00;52297.25;5057400;28;20265;-68
2022/07/05 04:41:58;;;;;;;;;;;;;;;-144.99;100.00;52264.66;5053873;28;19979;-68
2022/07/05 04:44:24;;;;;;;;;;;;;;;-144.99;100.00;52203.50;5055670;28;20015;-68
2022/07/05 04:46:52;;;;;;;;;;;;;;;-144.99;100.00;52264.66;5057268;28;19931;-68
2022/07/05 04:49:19;;;;;;;;;;;;;;;-144.99;100.00;52272.81;5054320;28;20011;-68
2022/07/05 04:51:45;;;;;;;;;;;;;;;-144.99;100.00;52276.88;5056506;28;20019;-68
2022/07/05 04:54:11;;;;;;;;;;;;;;;-144.99;100.00;52272.81;5062674;28;20031;-68
2022/07/05 04:56:38;;;;;;;;;;;;;;;-144.99;100.00;52268.72;5058303;28;20067;-68
2022/07/05 04:59:04;;;;;;;;;;;;;;;-144.99;100.00;52240.19;5052397;28;20421;-68
2022/07/05 05:01:31;;;;;;;;;;;;;;;-144.99;100.00;52285.03;5048094;28;20020;-68
2022/07/05 05:03:59;;;;;;;;;;;;;;;-144.99;100.00;52276.88;5051930;28;20408;-68
2022/07/05 05:06:25;;;;;;;;;;;;;;;-144.99;100.00;52248.34;5062915;28;19925;-68
2022/07/05 05:08:52;;;;;;;;;;;;;;;-144.99;100.00;52238.16;5058133;28;19959;-67
2022/07/05 05:11:18;;;;;;;;;;;;;;;-144.99;100.00;52252.44;5059502;28;20294;-68
2022/07/05 05:13:46;;;;;;;;;;;;;;;-144.99;100.00;52254.47;5058948;28;19956;-68
2022/07/05 05:16:13;;;;;;;;;;;;;;;-144.99;100.00;52232.03;5056824;28;20000;-69
2022/07/05 05:18:39;;;;;;;;;;;;;;;-144.99;98.52;52264.66;5052263;28;20451;-68
2022/07/05 05:21:07;;;;;;;;;;;;;;;-144.99;98.89;52244.28;4359410;28;10000705;-69
2022/07/05 05:23:33;;;;;;;;;;;;;;;-144.99;98.58;52293.19;5044391;28;20433;-68
2022/07/05 05:26:00;;;;;;;;;;;;;;;-144.99;96.23;52258.53;5047355;28;20011;-68
2022/07/05 05:28:26;;;;;;;;;;;;;;;-144.99;95.92;52268.72;5047985;28;20019;-68
2022/07/05 05:30:53;;;;;;;;;;;;;;;-144.99;95.58;52266.69;5046714;28;20373;-68
2022/07/05 05:33:19;;;;;;;;;;;;;;;-144.99;93.80;52252.44;5047561;28;20382;-70
2022/07/05 05:35:46;;;;;;;;;;;;;;;-144.99;92.70;52232.03;5047351;28;20349;-70
2022/07/05 05:38:13;;;;;;;;;;;;;;;-144.99;92.28;52203.50;5042851;28;20027;-70
2022/07/05 05:40:43;;;;;;;;;;;;;;;-144.99;91.63;52272.81;5047190;28;20033;-70
2022/07/05 05:43:09;;;;;;;;;;;;;;;-144.99;91.04;52264.66;5046721;28;19928;-71
2022/07/05 05:45:36;;;;;;;;;;;;;;;-144.99;90.81;52244.28;5046686;28;19932;-71
2022/07/05 05:48:02;;;;;;;;;;;;;;;-144.99;89.98;52225.94;5044149;28;20011;-69
2022/07/05 05:50:29;;;;;;;;;;;;;;;-144.99;90.52;52248.34;5046384;28;20420;-70
2022/07/05 05:52:56;;;;;;;;;;;;;;;-144.99;90.04;52278.91;5046690;28;20449;-69
2022/07/05 05:55:24;;;;;;;;;;;;;;;-144.99;89.61;52221.84;5045257;28;19931;-70
2022/07/05 05:57:51;;;;;;;;;;;;;;;-144.99;89.38;52252.44;5046664;28;20328;-70
2022/07/05 06:00:18;;;;;;;;;;;;;;;-144.99;88.68;52256.50;5046667;28;19935;-70
2022/07/05 06:02:45;;;;;;;;;;;;;;;-144.99;88.55;52223.88;5046204;28;19929;-70
2022/07/05 06:05:12;;;;;;;;;;;;;;;-144.99;88.78;52232.03;5045376;28;19999;-70
2022/07/05 06:07:45;;;;;;;;;;;;;;;-144.99;87.89;52227.97;5046073;28;19976;-70
2022/07/05 06:10:11;;;;;;;;;;;;;;;-144.99;87.18;52236.13;5047352;28;19947;-70
2022/07/05 06:12:39;;;;;;;;;;;;;;;-144.99;86.03;52236.13;5047300;28;20019;-70
2022/07/05 06:15:06;;;;;;;;;;;;;;;-144.99;85.53;52256.50;5047875;28;19992;-72
2022/07/05 06:17:36;;;;;;;;;;;;;;;-144.99;85.42;52227.97;5044886;28;19964;-70
2022/07/05 06:20:04;;;;;;;;;;;;;;;-144.99;84.42;52256.50;5042691;28;19960;-69
2022/07/05 06:22:31;;;;;;;;;;;;;;;-144.99;83.81;52244.28;5045542;28;19929;-70
2022/07/05 06:24:57;;;;;;;;;;;;;;;-144.99;83.66;52240.19;5046496;28;19990;-70
2022/07/05 06:27:24;;;;;;;;;;;;;;;-144.99;82.86;52244.28;5045214;28;20028;-70
2022/07/05 06:29:51;;;;;;;;;;;;;;;-144.99;82.27;52227.97;5046385;28;20519;-70
2022/07/05 06:32:18;;;;;;;;;;;;;;;-144.99;81.55;52203.50;5045867;28;19929;-70
2022/07/05 06:34:44;;;;;;;;;;;;;;;-144.99;80.43;52211.66;5046241;28;20480;-70
2022/07/05 06:37:11;;;;;;;;;;;;;;;-144.99;80.30;52215.75;5038708;28;19968;-70
2022/07/05 06:39:37;;;;;;;;;;;;;;;-144.99;78.40;52215.75;5045942;28;19929;-70
2022/07/05 06:42:04;;;;;;;;;;;;;;;-144.99;78.34;52244.28;5041342;28;20433;-71
2022/07/05 06:44:31;;;;;;;;;;;;;;;-144.99;77.26;52183.13;5039086;28;20019;-70
2022/07/05 06:46:59;;;;;;;;;;;;;;;-144.99;77.41;52201.47;5044159;28;19924;-71
2022/07/05 06:49:25;;;;;;;;;;;;;;;-144.99;76.19;52187.19;5047610;28;20007;-70
2022/07/05 06:51:52;;;;;;;;;;;;;;;-144.99;74.50;52217.78;5045314;28;20007;-70
2022/07/05 06:54:18;;;;;;;;;;;;;;;-144.99;74.87;52240.19;5067692;22;19928;-70
2022/07/05 06:56:44;;;;;;;;;;;;;;;-144.99;75.40;52195.34;4719385;28;10000360;-70
2022/07/05 06:59:11;;;;;;;;;;;;;;;-144.99;74.83;52211.66;5068752;28;19980;-69
2022/07/05 07:01:37;;;;;;;;;;;;;;;-144.99;73.75;52223.88;5075081;28;19936;-68
2022/07/05 07:04:05;;;;;;;;;;;;;;;-144.99;74.54;52262.63;5069372;28;19929;-68
2022/07/05 07:06:32;;;;;;;;;;;;;;;-144.99;74.85;52211.66;5067007;28;19964;-70
2022/07/05 07:11:42;;;;;;;;;;;;;;;-144.99;74.55;52238.16;5063533;28;19940;-68
2022/07/05 07:14:09;;;;;;;;;;;;;;;-144.99;73.66;52236.13;5068308;28;20039;-68
2022/07/05 07:16:35;;;;;;;;;;;;;;;-144.99;74.39;52211.66;5068612;28;20015;-70
2022/07/05 07:19:02;;;;;;;;;;;;;;;-144.99;72.87;52187.19;5067596;28;20039;-69
2022/07/05 07:21:30;;;;;;;;;;;;;;;-144.99;70.14;52215.75;5069183;28;20027;-70
2022/07/05 07:23:56;;;;;;;;;;;;;;;-144.99;69.80;52203.50;5068817;28;19924;-69
2022/07/05 07:26:23;;;;;;;;;;;;;;;-144.99;67.67;52187.19;5068553;28;19980;-70
2022/07/05 07:28:49;;;;;;;;;;;;;;;-144.99;65.64;52227.97;5067926;28;20470;-69
2022/07/05 07:31:16;;;;;;;;;;;;;;;-144.99;65.54;52201.47;5067275;28;20018;-69
2022/07/05 07:33:42;;;;;;;;;;;;;;;-144.99;62.72;52183.13;5065298;28;19947;-70
2022/07/05 07:36:09;;;;;;;;;;;;;;;-144.99;60.05;52207.59;5067434;28;19978;-69
2022/07/05 07:38:37;;;;;;;;;;;;;;;-144.99;61.28;52215.75;5068103;28;19936;-69
2022/07/05 07:41:03;;;;;;;;;;;;;;;-144.99;59.77;52166.81;5067992;28;20016;-69
2022/07/05 07:43:30;;;;;;;;;;;;;;;-144.99;58.51;52199.44;5067744;28;19929;-70
2022/07/05 07:45:56;;;;;;;;;;;;;;;-144.99;58.14;52195.34;5067994;28;20055;-69
2022/07/05 07:48:23;;;;;;;;;;;;;;;-144.99;55.45;52170.91;5064139;28;19925;-69
2022/07/05 07:50:49;;;;;;;;;;;;;;;-144.99;54.45;52166.81;5068020;28;20021;-69
2022/07/05 07:53:16;;;;;;;;;;;;;;;-144.99;55.45;52187.19;5067931;28;20018;-69
2022/07/05 07:55:44;;;;;;;;;;;;;;;-144.99;55.09;52199.44;5066338;28;19971;-69
2022/07/05 07:58:10;;;;;;;;;;;;;;;-144.99;54.06;52191.28;5064689;28;20297;-69
2022/07/05 08:00:36;;;;;;;;;;;;;;;-144.99;52.55;52179.06;5067055;28;19967;-69
2022/07/05 08:03:03;;;;;;;;;;;;;;;-144.99;53.64;52199.44;5066322;28;19938;-69
2022/07/05 08:05:29;;;;;;;;;;;;;;;-144.99;51.13;52227.97;5068114;28;19956;-69
2022/07/05 08:07:56;;;;;;;;;;;;;;;-144.99;49.58;52195.34;5067120;28;20016;-69
2022/07/05 08:10:22;;;;;;;;;;;;;;;-144.99;49.55;52170.91;5067389;28;20023;-69
2022/07/05 08:12:50;;;;;;;;;;;;;;;-144.99;48.86;52150.53;5066703;28;20019;-69
2022/07/05 08:15:17;;;;;;;;;;;;;;;-144.99;48.31;52183.13;5066272;28;19924;-70
2022/07/05 08:21:30;;;;;;;;;;;;;;;-144.99;47.40;52179.06;5066374;28;19929;-69
2022/07/05 08:23:14;;;;;;;;;;;;;;;-144.99;44.71;52195.34;5066599;28;19938;-69
2022/07/05 08:25:40;;;;;;;;;;;;;;;-144.99;45.15;52199.44;5067541;28;20046;-71
2022/07/05 08:28:08;;;;;;;;;;;;;;;-144.99;45.69;52187.19;5068347;28;19995;-69
2022/07/05 08:30:34;;;;;;;;;;;;;;;-144.99;47.55;52187.19;5066841;28;20019;-69
2022/07/05 08:33:01;;;;;;;;;;;;;;;-144.99;48.39;52219.81;5065321;28;19929;-69
2022/07/05 08:35:27;;;;;;;;;;;;;;;-144.99;49.10;52227.97;5066915;28;19983;-69
2022/07/05 08:37:54;;;;;;;;;;;;;;;-144.99;49.23;52183.13;5066587;28;20015;-69
2022/07/05 08:40:23;;;;;;;;;;;;;;;-144.99;50.21;52199.44;5067126;28;20315;-69
2022/07/05 08:42:50;;;;;;;;;;;;;;;-144.99;50.10;52223.88;5066320;28;20014;-70
2022/07/05 08:45:19;;;;;;;;;;;;;;;-144.99;49.59;52215.75;5067047;28;19925;-68
2022/07/05 08:47:46;;;;;;;;;;;;;;;-144.99;49.56;52189.25;5066060;28;19971;-68
2022/07/05 08:50:14;;;;;;;;;;;;;;;-144.99;50.54;52219.81;5067095;28;19933;-71
2022/07/05 08:52:41;;;;;;;;;;;;;;;-144.99;51.63;52195.34;5067318;28;20289;-70
2022/07/05 08:55:08;;;;;;;;;;;;;;;-144.99;52.95;52207.59;5066434;28;19960;-69
2022/07/05 08:57:35;;;;;;;;;;;;;;;-144.99;53.69;52211.66;5064643;28;20228;-69
2022/07/05 09:00:01;;;;;;;;;;;;;;;-144.99;54.42;52236.13;5066302;28;19978;-70
2022/07/05 09:02:29;;;;;;;;;;;;;;;-144.99;54.70;52191.28;5065100;28;20350;-69
2022/07/05 09:04:57;;;;;;;;;;;;;;;-144.99;54.11;52179.06;5065972;28;20028;-69
2022/07/05 09:07:25;;;;;;;;;;;;;;;-144.99;52.62;52227.97;5065867;28;20304;-69
2022/07/05 09:09:52;;;;;;;;;;;;;;;-144.99;52.56;52166.81;5065687;28;19967;-68
2022/07/05 09:12:18;;;;;;;;;;;;;;;-144.99;51.83;52203.50;5063833;28;20000;-69
2022/07/05 09:14:45;;;;;;;;;;;;;;;-144.99;50.86;52170.91;5066421;28;19987;-70
2022/07/05 09:17:11;;;;;;;;;;;;;;;-144.99;50.24;52134.22;5066449;28;19928;-69
2022/07/05 09:19:39;;;;;;;;;;;;;;;-144.99;48.06;52160.72;5065883;28;20012;-69
2022/07/05 09:22:08;;;;;;;;;;;;;;;-144.99;46.94;52195.34;5065205;28;19929;-70
2022/07/05 09:24:43;;;;;;;;;;;;;;;-144.99;47.72;52191.28;5065893;28;20007;-69
2022/07/05 09:27:09;;;;;;;;;;;;;;;-144.99;46.68;52166.81;5067622;28;19928;-70
2022/07/05 09:29:36;;;;;;;;;;;;;;;-144.99;47.03;52170.91;5065667;28;19928;-69
2022/07/05 09:32:02;;;;;;;;;;;;;;;-144.99;46.26;52179.06;5060935;28;20035;-69
2022/07/05 09:34:29;;;;;;;;;;;;;;;-144.99;46.33;52152.56;5065940;28;19924;-70
2022/07/05 09:36:58;;;;;;;;;;;;;;;-144.99;47.20;52130.13;5062178;28;20023;-70
2022/07/05 09:39:37;;;;;;;;;;;;;;;-144.99;45.24;52183.13;5063569;28;19929;-71
2022/07/05 09:42:14;;;;;;;;;;;;;;;-144.99;44.82;52179.06;5065371;28;20427;-68
2022/07/05 09:44:43;;;;;;;;;;;;;;;-144.99;44.81;52150.53;5061447;28;19928;-70
2022/07/05 09:47:11;;;;;;;;;;;;;;;-144.99;44.17;52174.97;5065707;28;20258;-70
2022/07/05 09:49:38;;;;;;;;;;;;;;;-144.99;43.38;52113.84;5072104;28;19928;-70
2022/07/05 09:52:06;;;;;;;;;;;;;;;-144.99;43.62;52154.59;5069629;28;19962;-70
2022/07/05 09:54:32;;;;;;;;;;;;;;;-144.99;42.99;52160.72;5070808;28;20497;-70
2022/07/05 09:56:59;;;;;;;;;;;;;;;-144.99;42.18;52156.63;5066954;28;19931;-70
2022/07/05 09:59:25;;;;;;;;;;;;;;;-144.99;42.13;52115.88;5075607;28;19976;-68
2022/07/05 10:01:52;;;;;;;;;;;;;;;-144.99;41.61;52126.06;5071243;28;19986;-71
2022/07/05 10:04:18;;;;;;;;;;;;;;;-144.99;41.52;52146.44;5072844;28;19928;-70
2022/07/05 10:06:45;;;;;;;;;;;;;;;-144.99;41.89;52154.59;5069071;28;20432;-70
2022/07/05 10:09:14;;;;;;;;;;;;;;;-144.99;42.82;52162.75;5068692;28;19929;-70
2022/07/05 10:11:41;;;;;;;;;;;;;;;-144.99;42.93;52146.44;5069229;28;19928;-69
2022/07/05 10:14:11;;;;;;;;;;;;;;;-144.99;42.58;52150.53;5069277;28;20628;-70
2022/07/05 10:16:37;;;;;;;;;;;;;;;-144.99;42.33;52138.28;5067587;28;19932;-70
2022/07/05 10:19:07;;;;;;;;;;;;;;;-144.99;42.91;52193.31;5067116;28;19978;-70
2022/07/05 10:21:34;;;;;;;;;;;;;;;-144.99;43.88;52191.28;5067264;28;20039;-70
2022/07/05 10:24:01;;;;;;;;;;;;;;;-144.99;43.98;52172.94;4713793;28;9999797;-70
2022/07/05 10:26:32;;;;;;;;;;;;;;;-144.99;43.15;52162.75;5068697;28;20311;-70
2022/07/05 10:28:59;;;;;;;;;;;;;;;-144.99;42.15;52087.34;5068385;28;20293;-70
2022/07/05 10:31:26;;;;;;;;;;;;;;;-144.99;41.24;52158.66;5068624;28;20011;-70
2022/07/05 10:33:53;;;;;;;;;;;;;;;-144.99;41.56;52146.44;5070147;28;20014;-70
2022/07/05 10:36:20;;;;;;;;;;;;;;;-144.99;41.94;52187.19;5069356;28;19924;-70
2022/07/05 10:38:48;;;;;;;;;;;;;;;-144.99;42.59;52150.53;5069091;28;20024;-70
2022/07/05 10:41:18;;;;;;;;;;;;;;;-144.99;42.54;52099.56;5069203;28;20047;-69
2022/07/05 10:43:46;;;;;;;;;;;;;;;-144.99;42.59;52097.53;5069377;28;20154;-70
2022/07/05 10:46:18;;;;;;;;;;;;;;;-144.99;43.44;52056.78;5068743;28;19982;-70
2022/07/05 10:48:44;;;;;;;;;;;;;;;-144.99;40.89;52158.66;5063571;28;20344;-70
2022/07/05 10:51:17;;;;;;;;;;;;;;;-144.99;41.51;52162.75;5069689;28;20011;-70
2022/07/05 10:54:02;;;;;;;;;;;;;;;-144.99;41.91;52150.53;5068085;28;19928;-68
2022/07/05 10:56:29;;;;;;;;;;;;;;;-144.99;42.22;52164.78;5068405;28;20066;-68
2022/07/05 10:59:06;;;;;;;;;;;;;;;-144.99;42.16;52111.78;5068408;28;20474;-70
2022/07/05 11:01:36;;;;;;;;;;;;;;;-144.99;42.73;52107.72;5067874;28;20379;-67
2022/07/05 11:04:20;;;;;;;;;;;;;;;-144.99;42.18;52121.97;5068962;28;20011;-70
2022/07/05 11:06:49;;;;;;;;;;;;;;;-144.99;41.51;52069.00;5057075;28;20048;-69
2022/07/05 11:09:19;;;;;;;;;;;;;;;-144.99;40.87;52050.66;5068266;28;19924;-69
2022/07/05 11:11:47;;;;;;;;;;;;;;;-144.99;41.05;52071.03;5068060;28;20024;-69
2022/07/05 11:14:40;;;;;;;;;;;;;;;-144.99;40.56;52077.16;5068401;28;20330;-69
2022/07/05 11:17:19;;;;;;;;;;;;;;;-144.99;40.32;52105.69;5042346;28;19990;-70
2022/07/05 11:20:04;;;;;;;;;;;;;;;-144.99;41.12;52134.22;5068476;28;19935;-70
2022/07/05 11:22:31;;;;;;;;;;;;;;;-144.99;40.14;52101.59;5064580;28;19928;-69
2022/07/05 11:24:58;;;;;;;;;;;;;;;-144.99;40.59;52069.00;5064860;28;19932;-68
2022/07/05 11:27:24;;;;;;;;;;;;;;;-144.99;39.72;52109.75;5075594;28;20015;-70
2022/07/05 11:29:51;;;;;;;;;;;;;;;-144.99;39.46;52103.66;5067480;28;19964;-70
2022/07/05 11:32:23;;;;;;;;;;;;;;;-144.99;38.55;52126.06;5067630;28;19935;-68
2022/07/05 11:34:50;;;;;;;;;;;;;;;-144.99;39.22;52130.13;5067565;28;19932;-68
2022/07/05 11:37:23;;;;;;;;;;;;;;;-144.99;38.98;52101.59;5066898;28;19950;-69
2022/07/05 11:40:14;;;;;;;;;;;;;;;-144.99;38.27;52109.75;5068092;28;19924;-70
2022/07/05 11:42:46;;;;;;;;;;;;;;;-144.99;39.33;52113.84;5063834;28;20241;-70
2022/07/05 11:45:13;;;;;;;;;;;;;;;-144.99;39.32;52089.38;5064038;28;19936;-70
2022/07/05 11:47:41;;;;;;;;;;;;;;;-144.99;39.46;52071.03;5067665;28;19936;-70
2022/07/05 11:50:09;;;;;;;;;;;;;;;-144.99;39.83;52060.84;5065340;28;19924;-69
2022/07/05 11:52:36;;;;;;;;;;;;;;;-144.99;39.77;52077.16;5067567;28;19932;-69
2022/07/05 11:55:04;;;;;;;;;;;;;;;-144.99;38.40;52105.69;5059069;28;20332;-69
2022/07/05 11:57:31;;;;;;;;;;;;;;;-144.99;38.86;52085.31;5070829;28;19932;-69
2022/07/05 11:59:57;;;;;;;;;;;;;;;-144.99;39.64;52105.69;5063279;28;20015;-69
2022/07/05 12:02:24;;;;;;;;;;;;;;;-144.99;39.90;52146.44;5066927;28;20037;-69
2022/07/05 12:04:52;;;;;;;;;;;;;;;-144.99;40.64;52150.53;5068369;28;19972;-70
2022/07/05 12:07:25;;;;;;;;;;;;;;;-144.99;40.94;52130.13;5065440;28;19978;-69
2022/07/05 12:12:47;;;;;;;;;;;;;;;-144.99;41.44;52069.00;5066687;28;20077;-71
2022/07/05 12:15:14;;;;;;;;;;;;;;;-144.99;41.56;52020.09;5066166;28;19924;-68
2022/07/05 12:17:42;;;;;;;;;;;;;;;-144.99;41.29;52105.69;5067363;28;20027;-68
2022/07/05 12:20:11;;;;;;;;;;;;;;;-144.99;40.71;52126.06;5067674;28;19924;-68
2022/07/05 12:22:38;;;;;;;;;;;;;;;-144.99;40.90;52113.84;5067376;28;19931;-69
2022/07/05 12:25:06;;;;;;;;;;;;;;;-144.99;41.53;52107.72;5067896;28;20001;-70
2022/07/05 12:27:34;;;;;;;;;;;;;;;-144.99;42.03;52138.28;5066548;28;20023;-70
2022/07/05 12:30:02;;;;;;;;;;;;;;;-144.99;42.09;52174.97;5065533;28;20007;-70
2022/07/05 12:32:29;;;;;;;;;;;;;;;-144.99;42.37;52113.84;5059926;28;19936;-70
2022/07/05 12:34:56;;;;;;;;;;;;;;;-144.99;42.20;52091.41;5067401;28;19932;-69
2022/07/05 12:37:24;;;;;;;;;;;;;;;-144.99;41.51;52126.06;5067016;28;19968;-69